Time;durP1;ratioP1;P1;durP2;ratioP2;P2;SDS_P1;SDS_P2;PMS_P1;PMS_P2;Temp;Humidity;BMP_temperature;BMP_pressure;BME280_temperature;BME280_humidity;BME280_pressure;Samples;Min_cycle;Max_cycle;Signal;HPM_P1;HPM_P2
2022/04/29 00:00:59;;;;;;;16.37;12.33;;;10.90;1.00;;;;;;5095074;28;20243;-71
2022/04/29 00:03:24;;;;;;;22.03;12.90;;;10.90;1.00;;;;;;5095400;28;20263;-71
2022/04/29 00:05:51;;;;;;;17.43;13.70;;;10.80;1.00;;;;;;5095145;28;20225;-72
2022/04/29 00:08:17;;;;;;;20.90;13.80;;;10.80;1.00;;;;;;5094704;28;20208;-72
2022/04/29 00:10:44;;;;;;;18.47;13.57;;;10.80;1.00;;;;;;5094680;28;20167;-72
2022/04/29 00:13:12;;;;;;;21.03;13.47;;;10.90;1.00;;;;;;5095234;28;20172;-71
2022/04/29 00:15:38;;;;;;;18.67;13.50;;;10.80;1.00;;;;;;5095017;28;20164;-71
2022/04/29 00:18:05;;;;;;;19.97;14.00;;;10.70;1.00;;;;;;5095390;28;20514;-72
2022/04/29 00:20:30;;;;;;;17.20;13.47;;;10.70;3.60;;;;;;5094758;28;20255;-72
2022/04/29 00:22:56;;;;;;;22.43;14.40;;;10.70;4.00;;;;;;5094530;28;20207;-71
2022/04/29 00:25:22;;;;;;;19.90;13.47;;;10.70;3.00;;;;;;5094957;28;20204;-72
2022/04/29 00:27:47;;;;;;;19.43;14.97;;;10.70;4.10;;;;;;5094857;28;20678;-71
2022/04/29 00:30:13;;;;;;;22.70;13.83;;;10.70;3.50;;;;;;5094607;28;20289;-72
2022/04/29 00:32:40;;;;;;;22.27;15.00;;;10.70;2.40;;;;;;5094084;28;20195;-72
2022/04/29 00:35:08;;;;;;;19.40;13.93;;;10.70;1.00;;;;;;5094779;28;20258;-72
2022/04/29 00:37:43;;;;;;;18.27;14.17;;;10.60;5.10;;;;;;5094557;28;20188;-72
2022/04/29 00:40:12;;;;;;;22.27;13.87;;;10.70;6.10;;;;;;5094752;28;20160;-72
2022/04/29 00:42:38;;;;;;;21.73;14.30;;;10.70;5.70;;;;;;5094685;28;20221;-72
2022/04/29 00:45:04;;;;;;;20.13;14.17;;;10.80;1.80;;;;;;5094424;28;20633;-72
2022/04/29 00:47:29;;;;;;;19.93;14.70;;;10.70;2.30;;;;;;5094518;28;20226;-72
2022/04/29 00:49:55;;;;;;;20.67;14.00;;;10.80;3.40;;;;;;5094483;28;20225;-72
2022/04/29 00:52:23;;;;;;;22.10;14.67;;;10.80;3.00;;;;;;5094068;28;20522;-72
2022/04/29 00:54:54;;;;;;;23.67;15.17;;;10.70;2.50;;;;;;5094599;28;20203;-72
2022/04/29 00:57:25;;;;;;;32.27;18.03;;;10.70;2.80;;;;;;5094276;28;20228;-72
2022/04/29 01:00:11;;;;;;;20.97;13.63;;;10.70;5.00;;;;;;5094365;28;20175;-72
2022/04/29 01:02:42;;;;;;;25.23;15.70;;;10.60;8.60;;;;;;5094343;28;20171;-71
2022/04/29 01:05:11;;;;;;;20.70;14.83;;;10.60;9.50;;;;;;5094114;28;20176;-72
2022/04/29 01:07:38;;;;;;;21.63;15.10;;;10.60;12.70;;;;;;5094254;28;20195;-71
2022/04/29 01:10:06;;;;;;;22.23;15.30;;;10.70;12.40;;;;;;5094086;28;20174;-72
2022/04/29 01:12:35;;;;;;;20.37;14.87;;;10.60;8.30;;;;;;5094111;28;20247;-72
2022/04/29 01:15:07;;;;;;;24.43;15.33;;;10.60;10.00;;;;;;5094049;28;20650;-71
2022/04/29 01:17:35;;;;;;;22.83;14.63;;;10.60;11.80;;;;;;5094165;28;20160;-71
2022/04/29 01:20:02;;;;;;;26.13;15.43;;;10.60;12.10;;;;;;5093720;28;20176;-72
2022/04/29 01:22:29;;;;;;;28.67;15.70;;;10.60;10.40;;;;;;5093202;28;20627;-71
2022/04/29 01:24:54;;;;;;;24.27;15.17;;;10.60;8.30;;;;;;5093965;28;20176;-71
2022/04/29 01:27:20;;;;;;;22.43;15.27;;;10.50;11.90;;;;;;5093537;28;20501;-71
2022/04/29 01:29:55;;;;;;;21.47;14.80;;;10.50;10.80;;;;;;5093668;28;20172;-70
2022/04/29 01:32:21;;;;;;;21.00;15.10;;;10.60;10.30;;;;;;5093785;28;20188;-72
2022/04/29 01:34:47;;;;;;;22.23;15.23;;;10.60;11.60;;;;;;5093542;28;20172;-72
2022/04/29 01:37:12;;;;;;;21.97;14.40;;;10.60;8.90;;;;;;5093680;28;20195;-72
2022/04/29 01:39:38;;;;;;;20.00;14.90;;;10.70;7.00;;;;;;5093904;28;20176;-72
2022/04/29 01:42:04;;;;;;;21.80;15.23;;;10.70;4.70;;;;;;5093790;28;20195;-71
2022/04/29 01:44:30;;;;;;;22.43;15.40;;;10.80;1.00;;;;;;5093519;28;20172;-72
2022/04/29 01:46:55;;;;;;;20.23;15.20;;;10.80;1.00;;;;;;5093405;28;20172;-71
2022/04/29 01:49:21;;;;;;;22.13;15.10;;;10.80;1.00;;;;;;5093292;28;20211;-72
2022/04/29 01:51:47;;;;;;;23.00;15.27;;;10.90;1.00;;;;;;5093511;28;20196;-73
2022/04/29 01:54:12;;;;;;;25.90;15.77;;;10.90;1.00;;;;;;5075562;28;20175;-72
2022/04/29 01:56:40;;;;;;;21.87;15.17;;;10.90;1.00;;;;;;5093018;28;20277;-72
2022/04/29 01:59:06;;;;;;;21.93;15.90;;;10.90;1.00;;;;;;5093396;28;20233;-72
2022/04/29 02:01:33;;;;;;;21.50;15.53;;;10.90;1.00;;;;;;5093247;28;20176;-71
2022/04/29 02:04:00;;;;;;;20.93;15.10;;;10.70;1.00;;;;;;5093075;28;20250;-71
2022/04/29 02:06:26;;;;;;;24.97;16.20;;;10.60;1.00;;;;;;5093477;28;20166;-71
2022/04/29 02:08:53;;;;;;;27.07;16.23;;;10.50;7.80;;;;;;5093270;28;20207;-71
2022/04/29 02:11:20;;;;;;;23.57;16.30;;;10.40;8.70;;;;;;5074929;28;20172;-71
2022/04/29 02:13:46;;;;;;;21.47;15.43;;;10.50;11.10;;;;;;5093453;28;20180;-71
2022/04/29 02:16:14;;;;;;;26.90;15.93;;;10.50;9.70;;;;;;5093118;28;20214;-71
2022/04/29 02:18:41;;;;;;;21.07;16.03;;;10.50;7.30;;;;;;5092899;28;20172;-71
2022/04/29 02:21:07;;;;;;;24.70;15.43;;;10.50;8.40;;;;;;5093291;28;20221;-71
2022/04/29 02:23:33;;;;;;;24.90;16.30;;;10.60;7.20;;;;;;5093090;28;20250;-73
2022/04/29 02:25:59;;;;;;;20.47;15.80;;;10.40;4.20;;;;;;5074833;28;20203;-72
2022/04/29 02:28:27;;;;;;;22.17;15.50;;;10.30;11.30;;;;;;5093260;28;20207;-72
2022/04/29 02:30:56;;;;;;;22.70;15.67;;;10.40;13.90;;;;;;5093114;28;20195;-71
2022/04/29 02:33:21;;;;;;;23.50;15.70;;;10.40;13.50;;;;;;5094883;28;20213;-71
2022/04/29 02:35:47;;;;;;;23.33;16.20;;;10.50;11.70;;;;;;5097100;28;20167;-71
2022/04/29 02:38:13;;;;;;;27.63;16.07;;;10.50;7.20;;;;;;5097077;28;20168;-71
2022/04/29 02:40:39;;;;;;;20.37;15.97;;;10.50;2.10;;;;;;5096560;28;20615;-71
2022/04/29 02:43:05;;;;;;;19.03;16.27;;;10.30;10.00;;;;;;5097055;28;20246;-71
2022/04/29 02:45:32;;;;;;;22.57;17.13;;;10.30;12.60;;;;;;5096796;28;20202;-72
2022/04/29 02:47:58;;;;;;;24.33;16.43;;;10.20;17.50;;;;;;5096396;28;20282;-71
2022/04/29 02:50:24;;;;;;;24.63;16.70;;;10.20;18.60;;;;;;5096600;28;20203;-71
2022/04/29 02:52:49;;;;;;;23.30;16.53;;;10.20;18.90;;;;;;5096547;28;20175;-72
2022/04/29 02:55:15;;;;;;;21.43;16.60;;;10.30;19.90;;;;;;5096398;28;20234;-73
2022/04/29 02:57:40;;;;;;;27.43;16.10;;;10.30;15.20;;;;;;5096581;28;20223;-72
2022/04/29 03:00:07;;;;;;;26.80;16.20;;;10.30;13.20;;;;;;5096586;28;20176;-72
2022/04/29 03:02:32;;;;;;;24.00;16.27;;;10.30;14.10;;;;;;5096594;28;20294;-73
2022/04/29 03:04:58;;;;;;;22.77;15.93;;;10.50;10.80;;;;;;5096666;28;20642;-71
2022/04/29 03:07:23;;;;;;;25.47;17.43;;;10.60;6.90;;;;;;5096445;28;20233;-72
2022/04/29 03:09:49;;;;;;;24.30;17.03;;;10.70;1.70;;;;;;5096345;28;20631;-71
2022/04/29 03:12:15;;;;;;;22.30;16.23;;;10.70;1.00;;;;;;5096626;28;20168;-71
2022/04/29 03:14:41;;;;;;;22.57;15.57;;;10.70;1.00;;;;;;5096373;28;20182;-71
2022/04/29 03:18:18;;;;;;;26.93;16.83;;;10.50;1.00;;;;;;5095932;28;20695;-71
2022/04/29 03:19:52;;;;;;;22.87;15.87;;;10.30;7.40;;;;;;5095914;28;20183;-72
2022/04/29 03:22:18;;;;;;;26.63;15.47;;;10.20;14.70;;;;;;5095831;28;20172;-71
2022/04/29 03:24:43;;;;;;;24.63;15.93;;;10.10;14.90;;;;;;5095881;28;20642;-72
2022/04/29 03:27:09;;;;;;;28.83;15.90;;;10.10;19.80;;;;;;5096063;28;20168;-71
2022/04/29 03:29:34;;;;;;;24.07;16.00;;;10.10;17.20;;;;;;5096259;28;20216;-71
2022/04/29 03:32:00;;;;;;;25.60;15.90;;;10.00;19.50;;;;;;5095602;28;20192;-72
2022/04/29 03:34:25;;;;;;;24.23;15.97;;;10.10;19.70;;;;;;5095826;28;20186;-71
2022/04/29 03:36:51;;;;;;;23.80;16.20;;;10.10;16.30;;;;;;5095918;28;20490;-71
2022/04/29 03:39:17;;;;;;;22.33;15.60;;;10.00;15.40;;;;;;5095984;28;20221;-71
2022/04/29 03:41:43;;;;;;;26.17;15.47;;;10.00;17.80;;;;;;5095541;28;20195;-72
2022/04/29 03:44:08;;;;;;;25.83;15.73;;;10.00;14.90;;;;;;5094930;28;20574;-71
2022/04/29 03:46:34;;;;;;;28.70;17.57;;;9.90;17.80;;;;;;5095281;28;20171;-71
2022/04/29 03:51:44;;;;;;;25.70;16.47;;;10.10;22.80;;;;;;5095347;28;20237;-70
2022/04/29 03:54:09;;;;;;;27.03;15.57;;;10.30;20.00;;;;;;5094846;28;20176;-71
2022/04/29 03:56:35;;;;;;;21.90;16.47;;;10.30;12.50;;;;;;5095279;28;20590;-71
2022/04/29 03:59:00;;;;;;;24.73;15.80;;;10.30;12.50;;;;;;5095062;28;20181;-71
2022/04/29 04:01:27;;;;;;;24.43;15.60;;;10.30;12.90;;;;;;5095416;28;20262;-72
2022/04/29 04:03:53;;;;;;;23.60;16.43;;;10.30;7.30;;;;;;5095018;28;20164;-72
2022/04/29 04:09:03;;;;;;;20.93;15.13;;;10.00;14.30;;;;;;5094993;28;20307;-72
2022/04/29 04:11:28;;;;;;;23.87;15.60;;;10.00;14.50;;;;;;5094663;28;20246;-71
2022/04/29 04:13:54;;;;;;;25.40;15.03;;;9.90;18.50;;;;;;5094378;28;20186;-71
2022/04/29 04:16:23;;;;;;;23.80;14.53;;;9.80;17.50;;;;;;5076460;28;20179;-72
2022/04/29 04:18:49;;;;;;;23.17;15.03;;;9.70;18.90;;;;;;5094845;28;20342;-72
2022/04/29 04:21:15;;;;;;;23.57;15.57;;;9.60;21.30;;;;;;5094450;28;20203;-72
2022/04/29 04:23:40;;;;;;;23.97;15.30;;;9.50;25.00;;;;;;5094961;28;20183;-71
2022/04/29 04:26:06;;;;;;;20.03;15.13;;;9.40;27.40;;;;;;5094682;28;20522;-71
2022/04/29 04:28:31;;;;;;;29.17;15.70;;;9.50;29.20;;;;;;5093891;28;20294;-72
2022/04/29 04:30:57;;;;;;;29.80;15.47;;;9.40;30.10;;;;;;5076113;28;20187;-70
2022/04/29 04:33:23;;;;;;;27.17;15.53;;;9.40;31.70;;;;;;5094545;28;20195;-71
2022/04/29 04:35:48;;;;;;;24.47;15.57;;;9.40;30.30;;;;;;5076256;28;20172;-71
2022/04/29 04:38:14;;;;;;;24.90;16.10;;;9.30;32.80;;;;;;5094404;28;20176;-72
2022/04/29 04:40:40;;;;;;;23.23;15.70;;;9.30;37.00;;;;;;5093817;28;20216;-72
2022/04/29 04:43:06;;;;;;;23.53;15.67;;;9.40;36.50;;;;;;5094017;28;20172;-72
2022/04/29 04:45:32;;;;;;;30.80;15.00;;;9.50;31.40;;;;;;5093702;28;20174;-71
2022/04/29 04:47:58;;;;;;;29.23;15.43;;;9.50;27.90;;;;;;5094091;28;20708;-71
2022/04/29 04:50:23;;;;;;;24.80;15.73;;;9.30;31.40;;;;;;5094019;28;20573;-71
2022/04/29 04:52:49;;;;;;;26.67;15.17;;;9.30;35.80;;;;;;5093519;28;20190;-72
2022/04/29 04:55:14;;;;;;;24.97;14.93;;;9.30;34.60;;;;;;5093095;28;20172;-71
2022/04/29 04:57:40;;;;;;;21.23;12.27;;;9.30;33.80;;;;;;5093169;28;20280;-72
2022/04/29 05:00:06;;;;;;;25.63;14.40;;;9.30;34.80;;;;;;5093491;28;20175;-72
2022/04/29 05:02:32;;;;;;;25.40;15.77;;;9.20;39.30;;;;;;5094047;28;20191;-71
2022/04/29 05:04:58;;;;;;;21.87;14.63;;;9.20;42.60;;;;;;5093556;28;20597;-72
2022/04/29 05:07:23;;;;;;;25.75;15.05;;;9.00;42.50;;;;;;5093400;28;20172;-72
2022/04/29 05:09:49;;;;;;;29.47;15.80;;;9.20;43.10;;;;;;5092893;28;20296;-71
2022/04/29 05:12:15;;;;;;;26.80;15.57;;;9.20;43.90;;;;;;5093383;28;20579;-71
2022/04/29 05:14:40;;;;;;;23.67;16.20;;;9.20;41.40;;;;;;5093376;28;20168;-72
2022/04/29 05:17:06;;;;;;;21.20;15.37;;;9.30;41.90;;;;;;5093473;28;20168;-71
2022/04/29 05:19:31;;;;;;;23.73;15.63;;;9.30;39.90;;;;;;5092855;28;20573;-72
2022/04/29 05:21:57;;;;;;;28.73;16.17;;;9.40;33.80;;;;;;5092598;28;20176;-72
2022/04/29 05:24:22;;;;;;;19.17;14.30;;;9.40;37.40;;;;;;5092872;28;20186;-72
2022/04/29 05:26:48;;;;;;;28.90;15.60;;;9.40;29.70;;;;;;5092576;28;20188;-71
2022/04/29 05:29:14;;;;;;;24.87;15.33;;;9.50;29.50;;;;;;5092555;28;20662;-72
2022/04/29 05:31:39;;;;;;;30.03;15.57;;;9.50;28.20;;;;;;5092194;28;20238;-72
2022/04/29 05:34:06;;;;;;;20.60;14.80;;;9.60;29.00;;;;;;5092047;28;20258;-72
2022/04/29 05:36:34;;;;;;;25.50;15.57;;;9.60;23.90;;;;;;5092687;28;20202;-72
2022/04/29 05:44:28;;;;;;;24.87;15.73;;;9.60;22.60;;;;;;5092202;28;20179;-72
2022/04/29 05:46:54;;;;;;;30.10;16.17;;;9.80;21.20;;;;;;5092052;28;20168;-72
2022/04/29 05:49:19;;;;;;;29.77;15.63;;;9.90;17.50;;;;;;5091590;28;20250;-72
2022/04/29 05:51:45;;;;;;;23.50;14.80;;;10.00;13.30;;;;;;5090744;28;20176;-72
2022/04/29 05:54:10;;;;;;;26.77;15.30;;;10.00;11.20;;;;;;5091947;28;20176;-72
2022/04/29 05:56:36;;;;;;;30.73;14.93;;;10.10;4.80;;;;;;5091686;28;20597;-72
2022/04/29 05:59:02;;;;;;;30.67;15.80;;;10.00;8.50;;;;;;5092291;28;20536;-71
2022/04/29 06:01:27;;;;;;;21.87;14.30;;;10.10;6.80;;;;;;5091832;28;20172;-71
2022/04/29 06:03:54;;;;;;;24.23;14.87;;;10.20;1.00;;;;;;5091635;28;20543;-71
2022/04/29 06:06:19;;;;;;;29.60;14.63;;;10.20;1.00;;;;;;5091906;28;20167;-71
2022/04/29 06:08:45;;;;;;;24.93;14.57;;;10.20;1.00;;;;;;5090918;28;20290;-72
2022/04/29 06:11:11;;;;;;;22.77;14.10;;;10.20;1.00;;;;;;5091693;28;20175;-71
2022/04/29 06:13:38;;;;;;;22.27;13.50;;;10.40;1.00;;;;;;5091484;28;20262;-72
2022/04/29 06:16:05;;;;;;;20.27;14.23;;;10.20;1.00;;;;;;5092144;28;20171;-72
2022/04/29 06:18:32;;;;;;;18.23;13.83;;;10.40;1.00;;;;;;5091322;28;20179;-73
2022/04/29 06:20:58;;;;;;;22.93;14.57;;;10.40;1.00;;;;;;5091785;28;20172;-71
2022/04/29 06:23:24;;;;;;;22.17;13.73;;;10.30;1.00;;;;;;5090101;28;20525;-72
2022/04/29 06:25:49;;;;;;;23.10;13.40;;;10.60;1.00;;;;;;5091432;28;20275;-71
2022/04/29 06:28:15;;;;;;;23.03;13.93;;;10.80;1.00;;;;;;5091016;28;20207;-72
2022/04/29 06:30:41;;;;;;;20.93;13.97;;;11.10;1.00;;;;;;5090830;28;20649;-73
2022/04/29 06:33:07;;;;;;;30.53;14.50;;;11.00;1.00;;;;;;5091527;28;20192;-72
2022/04/29 06:35:35;;;;;;;32.77;14.93;;;11.20;1.00;;;;;;5091532;28;20175;-71
2022/04/29 06:38:00;;;;;;;21.77;14.23;;;11.00;1.00;;;;;;5091632;28;20654;-71
2022/04/29 06:40:27;;;;;;;20.00;13.83;;;11.10;1.00;;;;;;5091172;28;20168;-71
2022/04/29 06:42:53;;;;;;;24.23;14.80;;;10.90;1.00;;;;;;5092317;28;20702;-72
2022/04/29 06:45:19;;;;;;;23.30;13.87;;;11.00;1.00;;;;;;5090705;28;20266;-71
2022/04/29 06:47:44;;;;;;;22.57;14.30;;;11.00;1.00;;;;;;5090752;28;20195;-71
2022/04/29 06:50:12;;;;;;;27.63;14.67;;;11.30;1.00;;;;;;5091362;28;20176;-71
2022/04/29 06:52:38;;;;;;;26.03;13.50;;;11.30;1.00;;;;;;5091758;28;20168;-71
2022/04/29 06:55:04;;;;;;;23.33;15.17;;;11.20;1.00;;;;;;5090324;28;20494;-71
2022/04/29 06:57:34;;;;;;;26.63;15.13;;;11.10;1.00;;;;;;5091563;28;20227;-72
2022/04/29 07:00:00;;;;;;;17.87;14.03;;;11.20;1.00;;;;;;5091842;28;20194;-71
2022/04/29 07:02:26;;;;;;;26.10;14.47;;;11.30;1.00;;;;;;5090964;28;20176;-71
2022/04/29 07:04:54;;;;;;;25.03;14.10;;;11.50;1.00;;;;;;5091662;28;20253;-72
2022/04/29 07:07:20;;;;;;;26.93;14.47;;;11.80;1.00;;;;;;5090476;28;20198;-73
2022/04/29 07:09:46;;;;;;;24.83;14.63;;;11.70;1.00;;;;;;5091306;28;20216;-72
2022/04/29 07:12:11;;;;;;;19.50;13.67;;;11.90;1.00;;;;;;5091416;28;20183;-71
2022/04/29 07:14:37;;;;;;;20.43;14.50;;;11.70;1.00;;;;;;5091165;28;20180;-70
2022/04/29 07:17:03;;;;;;;23.23;13.97;;;11.40;1.00;;;;;;5090864;28;20560;-70
2022/04/29 07:19:29;;;;;;;25.90;15.07;;;11.30;1.00;;;;;;5096497;28;20262;-71
2022/04/29 07:21:54;;;;;;;26.33;15.67;;;11.10;1.00;;;;;;5100831;28;20629;-72
2022/04/29 07:24:20;;;;;;;25.43;15.10;;;10.90;1.00;;;;;;5106165;28;20174;-71
2022/04/29 07:26:46;;;;;;;22.57;15.27;;;11.00;1.00;;;;;;5114766;28;20175;-71
2022/04/29 07:29:11;;;;;;;25.17;15.30;;;11.20;1.00;;;;;;5095888;28;20286;-69
2022/04/29 07:31:37;;;;;;;27.03;15.40;;;11.20;1.00;;;;;;5095556;28;20260;-70
2022/04/29 07:34:03;;;;;;;24.03;15.47;;;11.60;1.00;;;;;;5115052;28;20164;-70
2022/04/29 07:41:57;;;;;;;24.03;15.07;;;12.40;1.00;;;;;;5114662;28;20259;-70
2022/04/29 07:44:22;;;;;;;29.07;16.00;;;12.60;1.00;;;;;;5114802;28;20257;-70
2022/04/29 07:46:49;;;;;;;30.43;14.67;;;12.70;1.00;;;;;;5114770;28;20180;-71
2022/04/29 07:49:15;;;;;;;30.10;15.40;;;12.80;1.00;;;;;;5114621;28;20211;-72
2022/04/29 07:51:41;;;;;;;23.77;14.17;;;12.60;1.00;;;;;;5114408;28;20171;-71
2022/04/29 07:54:07;;;;;;;27.30;14.17;;;12.80;1.00;;;;;;5114502;28;20175;-72
2022/04/29 07:56:33;;;;;;;26.20;14.77;;;13.00;1.00;;;;;;5114308;28;20164;-71
2022/04/29 07:58:59;;;;;;;23.00;14.90;;;12.90;1.00;;;;;;5114281;28;20638;-72
2022/04/29 08:01:26;;;;;;;28.03;14.47;;;12.90;1.00;;;;;;5114578;28;20623;-71
2022/04/29 08:03:53;;;;;;;22.97;14.33;;;13.10;1.00;;;;;;5113877;28;20171;-71
2022/04/29 08:06:19;;;;;;;29.67;15.23;;;13.00;1.00;;;;;;5095699;28;20534;-72
2022/04/29 08:08:45;;;;;;;28.23;14.40;;;13.10;1.00;;;;;;5095021;28;20616;-72
2022/04/29 08:11:11;;;;;;;24.33;14.47;;;13.10;1.00;;;;;;5114213;28;20219;-72
2022/04/29 08:13:37;;;;;;;23.33;14.43;;;13.20;1.00;;;;;;5114707;28;20207;-71
2022/04/29 08:16:03;;;;;;;22.30;14.93;;;13.30;99.90;;;;;;5113969;28;20255;-71
2022/04/29 08:18:29;;;;;;;18.37;14.60;;;13.10;99.90;;;;;;5113942;28;20178;-71
2022/04/29 08:20:56;;;;;;;24.37;15.10;;;12.90;1.00;;;;;;5113451;28;20167;-70
2022/04/29 08:23:22;;;;;;;20.30;14.93;;;12.60;1.00;;;;;;5110865;27;20179;-71
2022/04/29 08:25:48;;;;;;;22.43;14.73;;;12.80;1.00;;;;;;5133549;27;20227;-70
2022/04/29 08:28:13;;;;;;;23.70;14.47;;;13.00;1.00;;;;;;5113794;28;20209;-70
2022/04/29 08:30:39;;;;;;;25.90;14.20;;;13.10;1.00;;;;;;5113192;28;20190;-69
2022/04/29 08:33:05;;;;;;;26.37;15.00;;;13.10;1.00;;;;;;5113645;28;20236;-70
2022/04/29 08:35:31;;;;;;;23.17;15.00;;;13.00;1.00;;;;;;5113785;28;20229;-71
2022/04/29 08:37:57;;;;;;;21.50;15.27;;;12.60;1.00;;;;;;5114015;28;20219;-71
2022/04/29 08:40:24;;;;;;;22.17;15.40;;;12.40;1.00;;;;;;5108876;28;20195;-70
2022/04/29 08:42:50;;;;;;;21.83;15.67;;;12.30;1.00;;;;;;5101417;28;21272;-71
2022/04/29 08:45:18;;;;;;;24.00;14.27;;;12.40;1.00;;;;;;5106245;28;20576;-71
2022/04/29 08:47:45;;;;;;;21.90;14.97;;;12.50;1.00;;;;;;5112534;28;20168;-71
2022/04/29 08:50:16;;;;;;;25.63;15.27;;;12.70;1.00;;;;;;5113509;28;20179;-69
2022/04/29 08:52:42;;;;;;;21.03;14.97;;;12.00;1.00;;;;;;5113685;28;20175;-70
2022/04/29 09:00:41;;;;;;;25.10;16.07;;;11.20;1.00;;;;;;5112954;28;20232;-71
2022/04/29 09:03:20;;;;;;;22.90;15.40;;;11.20;1.00;;;;;;5107003;27;20179;-71
2022/04/29 09:05:47;;;;;;;23.73;16.33;;;11.00;1.00;;;;;;5129279;27;20269;-72
2022/04/29 09:08:16;;;;;;;23.13;15.93;;;11.10;1.00;;;;;;5112728;28;20195;-71
2022/04/29 09:10:59;;;;;;;23.43;15.33;;;11.20;1.00;;;;;;5094647;28;20587;-70
2022/04/29 09:13:26;;;;;;;23.37;15.93;;;11.40;1.00;;;;;;5110450;28;20280;-69
2022/04/29 09:16:12;;;;;;;24.43;15.70;;;11.70;1.00;;;;;;5112519;28;20706;-70
2022/04/29 09:18:42;;;;;;;24.33;15.07;;;12.10;1.00;;;;;;5112364;28;20215;-71
2022/04/29 09:21:13;;;;;;;24.80;16.23;;;12.00;1.00;;;;;;5113097;28;20179;-71
2022/04/29 09:23:41;;;;;;;30.57;16.40;;;11.80;1.00;;;;;;5112776;28;20626;-72
2022/04/29 09:26:07;;;;;;;24.93;15.80;;;11.80;1.00;;;;;;5112408;28;20523;-71
2022/04/29 09:28:34;;;;;;;25.57;16.50;;;11.80;1.00;;;;;;5112537;28;20289;-71
2022/04/29 09:31:01;;;;;;;23.30;16.03;;;12.00;1.00;;;;;;5112210;28;20182;-70
2022/04/29 09:33:28;;;;;;;27.77;15.40;;;12.20;1.00;;;;;;5112557;28;20191;-71
2022/04/29 09:35:54;;;;;;;27.37;15.90;;;12.30;1.00;;;;;;5113062;28;20164;-71
2022/04/29 09:41:06;;;;;;;22.03;15.07;;;12.10;1.00;;;;;;5112565;28;20174;-72
2022/04/29 09:43:36;;;;;;;30.40;16.17;;;11.80;1.00;;;;;;5111520;28;20186;-72
2022/04/29 09:46:29;;;;;;;27.07;16.63;;;11.80;1.00;;;;;;5111178;28;20618;-70
2022/04/29 09:49:09;;;;;;;32.33;17.77;;;11.90;1.00;;;;;;5107700;28;20268;-70
2022/04/29 09:51:44;;;;;;;28.73;16.60;;;11.90;1.00;;;;;;5112769;28;20197;-70
2022/04/29 09:54:30;;;;;;;26.50;15.70;;;11.80;1.00;;;;;;5095612;28;20182;-71
2022/04/29 09:57:02;;;;;;;30.80;16.70;;;12.20;1.00;;;;;;5112107;28;20270;-71
2022/04/29 09:59:42;;;;;;;31.10;15.83;;;12.60;1.00;;;;;;5112125;28;20178;-70
2022/04/29 10:02:10;;;;;;;28.40;15.03;;;13.10;1.00;;;;;;5093264;28;20175;-71
2022/04/29 10:04:39;;;;;;;28.37;16.17;;;13.30;1.00;;;;;;5112430;28;20204;-72
2022/04/29 10:07:10;;;;;;;27.67;14.73;;;13.50;1.00;;;;;;5112043;28;20183;-75
2022/04/29 10:09:40;;;;;;;30.87;15.63;;;13.80;99.90;;;;;;5112100;28;20210;-73
2022/04/29 10:12:11;;;;;;;21.50;15.40;;;14.10;1.00;;;;;;5111936;28;20167;-71
2022/04/29 10:14:38;;;;;;;21.03;15.93;;;14.30;1.00;;;;;;5112288;28;20194;-71
2022/04/29 10:23:01;;;;;;;25.13;16.50;;;15.10;99.90;;;;;;5111900;28;20548;-71
2022/04/29 10:25:27;;;;;;;23.53;15.30;;;15.70;1.00;;;;;;5111556;28;20179;-71
2022/04/29 10:27:53;;;;;;;23.03;14.97;;;16.20;1.00;;;;;;5111402;28;20209;-72
2022/04/29 10:30:36;;;;;;;27.60;15.83;;;16.40;1.00;;;;;;5111423;28;20178;-71
2022/04/29 10:33:05;;;;;;;25.23;15.20;;;16.70;1.00;;;;;;5111847;28;20191;-72
2022/04/29 10:35:40;;;;;;;22.50;14.53;;;17.00;99.90;;;;;;5111223;28;20167;-71
2022/04/29 10:38:17;;;;;;;19.53;15.57;;;17.50;99.90;;;;;;5111434;28;20254;-72
2022/04/29 10:40:44;;;;;;;21.57;15.47;;;18.10;1.00;;;;;;5112429;28;20633;-70
2022/04/29 10:43:11;;;;;;;22.30;15.70;;;18.00;1.00;;;;;;5111851;28;20205;-71
2022/04/29 10:46:06;;;;;;;25.47;16.23;;;17.30;1.00;;;;;;5111225;28;20214;-71
2022/04/29 10:48:32;;;;;;;24.30;16.50;;;17.10;99.90;;;;;;5096968;28;20209;-70
2022/04/29 10:51:21;;;;;;;23.30;14.97;;;17.20;16.10;;;;;;5111624;28;20238;-71
2022/04/29 10:53:53;;;;;;;22.90;14.67;;;17.10;1.00;;;;;;5112579;28;20168;-70
2022/04/29 10:56:31;;;;;;;23.37;15.20;;;15.80;1.00;;;;;;5115078;28;20171;-72
2022/04/29 10:59:12;;;;;;;22.53;15.87;;;15.20;99.90;;;;;;5074979;28;20188;-70
2022/04/29 11:01:39;;;;;;;22.63;15.57;;;15.00;99.90;;;;;;5075255;28;20176;-71
2022/04/29 11:04:07;;;;;;;24.53;16.40;;;14.80;1.00;;;;;;5073838;28;20260;-72
2022/04/29 11:06:42;;;;;;;23.37;16.03;;;15.20;1.00;;;;;;5074941;28;20172;-72
2022/04/29 11:09:30;;;;;;;24.90;16.90;;;15.80;99.90;;;;;;5073970;28;20219;-73
2022/04/29 11:11:57;;;;;;;21.90;15.63;;;16.70;1.00;;;;;;5074333;28;20192;-71
2022/04/29 11:14:23;;;;;;;23.23;16.73;;;17.30;99.90;;;;;;5074611;28;20243;-73
2022/04/29 11:16:53;;;;;;;21.27;16.57;;;16.80;99.90;;;;;;5074544;28;20268;-72
2022/04/29 11:19:21;;;;;;;23.27;15.73;;;17.00;99.90;;;;;;5073795;28;20649;-72
2022/04/29 11:25:00;;;;;;;26.73;16.30;;;17.70;1.00;;;;;;5074783;28;20654;-72
2022/04/29 11:27:27;;;;;;;18.07;15.50;;;17.60;1.00;;;;;;5074380;28;20181;-72
2022/04/29 11:29:56;;;;;;;24.50;16.83;;;17.70;1.00;;;;;;5074113;28;20216;-72
2022/04/29 11:32:25;;;;;;;20.53;16.03;;;17.70;1.00;;;;;;5074034;28;20298;-72
2022/04/29 11:34:52;;;;;;;18.98;16.17;;;17.90;1.00;;;;;;5074530;28;20161;-74
2022/04/29 11:37:25;;;;;;;20.52;16.63;;;17.70;1.00;;;;;;5074267;28;20172;-73
2022/04/29 11:39:52;;;;;;;22.48;16.65;;;18.40;1.00;;;;;;5074330;28;20173;-72
2022/04/29 11:42:18;;;;;;;24.80;16.52;;;18.70;1.00;;;;;;5072574;28;20616;-72
2022/04/29 11:44:49;;;;;;;24.50;17.10;;;19.20;1.00;;;;;;5074127;28;20172;-72
2022/04/29 11:47:16;;;;;;;27.45;17.38;;;19.20;99.90;;;;;;5073778;28;20625;-71
2022/04/29 11:49:43;;;;;;;24.17;16.60;;;18.70;1.00;;;;;;5074038;28;20230;-73
2022/04/29 11:52:24;;;;;;;23.35;16.92;;;19.00;1.00;;;;;;5072933;28;20180;-71
2022/04/29 11:55:01;;;;;;;19.10;15.45;;;18.90;1.00;;;;;;5073390;28;20269;-72
2022/04/29 11:57:29;;;;;;;23.00;16.88;;;18.80;1.00;;;;;;5092889;28;20218;-74
2022/04/29 11:59:55;;;;;;;26.50;17.35;;;19.30;1.00;;;;;;5114232;28;20171;-73
2022/04/29 12:02:22;;;;;;;21.92;17.13;;;19.70;99.90;;;;;;5113754;28;20198;-72
2022/04/29 12:05:05;;;;;;;26.15;16.33;;;19.90;99.90;;;;;;5113782;28;20179;-73
2022/04/29 12:07:40;;;;;;;24.73;17.88;;;19.40;99.90;;;;;;5113888;28;20167;-72
2022/04/29 12:10:30;;;;;;;23.52;16.17;;;18.40;1.00;;;;;;5114215;28;20178;-71
2022/04/29 12:12:57;;;;;;;29.92;17.38;;;18.80;1.00;;;;;;5102083;28;20175;-73
2022/04/29 12:15:37;;;;;;;27.52;17.77;;;19.40;99.90;;;;;;5114514;28;20163;-72
2022/04/29 12:18:14;;;;;;;24.27;17.63;;;20.20;99.90;;;;;;5113521;28;20175;-71
2022/04/29 12:20:40;;;;;;;23.67;17.17;;;20.30;99.90;;;;;;5114201;28;20171;-72
2022/04/29 12:23:15;;;;;;;26.15;17.70;;;19.80;99.90;;;;;;5113898;28;20179;-73
2022/04/29 12:25:44;;;;;;;30.05;19.63;;;20.20;99.90;;;;;;5112665;28;20205;-73
2022/04/29 12:28:13;;;;;;;26.10;17.90;;;20.50;99.90;;;;;;5096265;28;20198;-73
2022/04/29 12:36:15;;;;;;;26.63;17.67;;;21.60;99.90;;;;;;5096830;28;20644;-73
2022/04/29 12:38:43;;;;;;;24.83;17.05;;;21.30;99.90;;;;;;5113684;28;20206;-72
2022/04/29 12:41:15;;;;;;;26.23;18.08;;;19.30;99.90;;;;;;5113511;28;20199;-73
2022/04/29 12:43:42;;;;;;;22.42;17.30;;;18.60;99.90;;;;;;5113969;28;20175;-72
2022/04/29 12:46:14;;;;;;;30.52;16.77;;;18.20;99.90;;;;;;5113336;28;20179;-74
2022/04/29 12:48:46;;;;;;;24.35;18.65;;;18.00;99.90;;;;;;5112992;28;20223;-74
2022/04/29 12:51:32;;;;;;;25.55;17.73;;;17.70;1.00;;;;;;5113582;28;20182;-71
2022/04/29 12:54:04;;;;;;;29.17;19.33;;;18.20;1.00;;;;;;5112568;28;20258;-73
2022/04/29 12:56:35;;;;;;;24.85;17.85;;;18.80;1.00;;;;;;5111388;28;20522;-71
2022/04/29 12:59:03;;;;;;;26.42;17.05;;;18.30;99.90;;;;;;5113589;28;20183;-73
2022/04/29 13:01:39;;;;;;;22.05;16.60;;;17.70;99.90;;;;;;5112986;28;20228;-72
2022/04/29 13:04:06;;;;;;;23.30;17.13;;;17.70;1.00;;;;;;5112287;28;20507;-71
2022/04/29 13:06:34;;;;;;;34.38;17.77;;;17.50;99.90;;;;;;5112190;28;20251;-72
2022/04/29 13:09:02;;;;;;;27.33;17.13;;;17.50;1.00;;;;;;5112866;28;20262;-71
2022/04/29 13:11:29;;;;;;;25.55;18.60;;;18.30;99.90;;;;;;5112748;28;20169;-72
2022/04/29 13:13:55;;;;;;;23.83;18.13;;;18.80;99.90;;;;;;5112410;28;20202;-72
2022/04/29 13:16:21;;;;;;;24.52;18.73;;;19.20;99.90;;;;;;5094493;28;20732;-73